Time;durP1;ratioP1;P1;durP2;ratioP2;P2;SDS_P1;SDS_P2;PMS_P1;PMS_P2;Temp;Humidity;BMP_temperature;BMP_pressure;BME280_temperature;BME280_humidity;BME280_pressure;Samples;Min_cycle;Max_cycle;Signal;HPM_P1;HPM_P2
2023/03/08 00:01:33;;;;;;;1.55;0.55;;;1.40;99.90;;;;;;4868314;29;20368;-38
2023/03/08 00:03:59;;;;;;;0.43;0.40;;;1.40;99.90;;;;;;4880227;29;20033;-39
2023/03/08 00:06:26;;;;;;;2.85;0.45;;;1.40;99.90;;;;;;4877273;29;20068;-41
2023/03/08 00:08:58;;;;;;;0.90;0.43;;;1.30;99.90;;;;;;4877260;29;20024;-38
2023/03/08 00:11:25;;;;;;;0.55;0.45;;;1.30;99.90;;;;;;4880155;29;20116;-34
2023/03/08 00:13:51;;;;;;;0.52;0.40;;;1.30;99.90;;;;;;4880108;29;20069;-37
2023/03/08 00:16:17;;;;;;;1.88;0.47;;;1.20;99.90;;;;;;4881535;29;20103;-34
2023/03/08 00:18:42;;;;;;;0.60;0.60;;;1.20;99.90;;;;;;4881066;29;20478;-34
2023/03/08 00:21:16;;;;;;;0.68;0.60;;;1.20;99.90;;;;;;4881815;29;20045;-32
2023/03/08 00:23:43;;;;;;;0.90;0.50;;;1.10;99.90;;;;;;4882295;29;20115;-32
2023/03/08 00:26:10;;;;;;;4.15;0.70;;;1.20;99.90;;;;;;4880445;29;20486;-37
2023/03/08 00:28:35;;;;;;;0.57;0.50;;;1.10;99.90;;;;;;4881363;29;20035;-33
2023/03/08 00:31:02;;;;;;;0.55;0.45;;;1.10;99.90;;;;;;4881963;29;20389;-35
2023/03/08 00:33:29;;;;;;;1.60;0.63;;;1.10;99.90;;;;;;4883837;29;20482;-31
2023/03/08 00:36:00;;;;;;;0.93;0.63;;;1.20;99.90;;;;;;4881836;29;20070;-33
2023/03/08 00:38:27;;;;;;;4.65;1.10;;;1.20;99.90;;;;;;4882321;29;20082;-41
2023/03/08 00:40:53;;;;;;;2.88;1.13;;;1.10;99.90;;;;;;4881953;29;20033;-36
2023/03/08 00:43:19;;;;;;;1.55;0.70;;;1.10;99.90;;;;;;4879971;29;20043;-40
2023/03/08 00:45:45;;;;;;;0.63;0.55;;;1.10;99.90;;;;;;4881733;29;20029;-34
2023/03/08 00:48:11;;;;;;;3.80;1.10;;;1.10;99.90;;;;;;4880863;29;20406;-34
2023/03/08 00:50:36;;;;;;;1.33;1.05;;;1.10;99.90;;;;;;4880622;29;20053;-32
2023/03/08 00:53:02;;;;;;;1.42;0.90;;;1.00;99.90;;;;;;4880672;29;20541;-37
2023/03/08 00:55:28;;;;;;;2.25;1.00;;;1.00;99.90;;;;;;4881949;29;20494;-38
2023/03/08 00:57:53;;;;;;;5.90;1.20;;;1.00;99.90;;;;;;4880667;29;20021;-33
2023/03/08 01:00:19;;;;;;;1.88;0.77;;;1.10;99.90;;;;;;4880715;29;20099;-43
2023/03/08 01:02:45;;;;;;;2.95;1.08;;;1.10;99.90;;;;;;4881368;29;20074;-40
2023/03/08 01:05:12;;;;;;;1.55;1.00;;;1.10;99.90;;;;;;4879819;29;20108;-40
2023/03/08 01:07:38;;;;;;;3.03;1.55;;;1.20;99.90;;;;;;4881832;29;20545;-39
2023/03/08 01:10:04;;;;;;;1.80;1.23;;;1.20;99.90;;;;;;4881015;29;20058;-41
2023/03/08 01:12:34;;;;;;;1.70;1.48;;;1.20;99.90;;;;;;4881294;29;20040;-49
2023/03/08 01:15:00;;;;;;;3.38;1.25;;;1.20;99.90;;;;;;4879699;29;20024;-41
2023/03/08 01:17:26;;;;;;;3.33;1.33;;;1.20;99.90;;;;;;4862710;29;20035;-40
2023/03/08 01:19:52;;;;;;;4.22;1.95;;;1.20;99.90;;;;;;4874855;29;20392;-42
2023/03/08 01:22:17;;;;;;;2.90;2.10;;;1.20;99.90;;;;;;4881323;29;20037;-41
2023/03/08 01:24:47;;;;;;;2.17;1.88;;;1.10;99.90;;;;;;4881178;29;20040;-41
2023/03/08 01:27:13;;;;;;;6.80;2.35;;;1.20;99.90;;;;;;4881105;29;20486;-40
2023/03/08 01:29:39;;;;;;;4.43;2.20;;;1.20;99.90;;;;;;4881105;29;20037;-39
2023/03/08 01:32:05;;;;;;;11.55;2.78;;;1.20;99.90;;;;;;4880988;29;20029;-33
2023/03/08 01:34:31;;;;;;;4.93;2.70;;;1.30;99.90;;;;;;4880989;29;20029;-34
2023/03/08 01:36:56;;;;;;;6.63;3.22;;;1.20;99.90;;;;;;4863621;29;20406;-35
2023/03/08 01:39:22;;;;;;;3.03;2.47;;;1.20;99.90;;;;;;4879043;29;20104;-44
2023/03/08 01:41:47;;;;;;;6.05;3.63;;;1.20;99.90;;;;;;4880247;29;20048;-40
2023/03/08 01:44:18;;;;;;;4.50;2.38;;;1.20;99.90;;;;;;4879386;29;20025;-41
2023/03/08 01:46:44;;;;;;;4.30;2.53;;;1.20;99.90;;;;;;4880798;29;20028;-42
2023/03/08 01:49:18;;;;;;;5.97;2.85;;;1.20;99.90;;;;;;4880597;29;20021;-42
2023/03/08 01:52:05;;;;;;;4.30;2.50;;;1.20;99.90;;;;;;4880444;29;20056;-43
2023/03/08 01:54:46;;;;;;;5.50;2.47;;;1.30;99.90;;;;;;4879059;29;20025;-51
2023/03/08 01:57:31;;;;;;;8.13;3.03;;;1.30;99.90;;;;;;4878400;29;20033;-43
2023/03/08 02:00:10;;;;;;;4.85;3.10;;;1.20;99.90;;;;;;4879941;29;20045;-39
2023/03/08 02:02:58;;;;;;;8.40;3.33;;;1.20;99.90;;;;;;4880311;29;20283;-41
2023/03/08 02:05:25;;;;;;;7.93;2.88;;;1.30;99.90;;;;;;4880430;29;20084;-41
2023/03/08 02:07:50;;;;;;;6.25;3.03;;;1.30;99.90;;;;;;4880441;29;20043;-40
2023/03/08 02:10:17;;;;;;;7.43;2.90;;;1.20;99.90;;;;;;4879818;29;20100;-43
2023/03/08 02:12:43;;;;;;;6.90;2.58;;;1.30;99.90;;;;;;4880239;29;20044;-41
2023/03/08 02:15:12;;;;;;;3.28;2.78;;;1.20;99.90;;;;;;4863708;29;20036;-40
2023/03/08 02:17:40;;;;;;;6.75;3.10;;;1.30;99.90;;;;;;4880066;29;20506;-40
2023/03/08 02:20:29;;;;;;;3.78;2.70;;;1.20;99.90;;;;;;4880167;29;20029;-41
2023/03/08 02:23:11;;;;;;;4.28;2.80;;;1.20;99.90;;;;;;4880105;29;20041;-44
2023/03/08 02:25:37;;;;;;;6.57;2.97;;;1.20;99.90;;;;;;4880512;29;20139;-46
2023/03/08 02:28:04;;;;;;;4.40;2.78;;;1.20;99.90;;;;;;4879458;29;20072;-42
2023/03/08 02:30:33;;;;;;;6.72;2.65;;;1.20;99.90;;;;;;4880375;29;20101;-40
2023/03/08 02:32:59;;;;;;;6.47;2.47;;;1.20;99.90;;;;;;4880079;29;20044;-44
2023/03/08 02:35:25;;;;;;;4.75;2.65;;;1.20;99.90;;;;;;4879858;29;20037;-45
2023/03/08 02:37:50;;;;;;;6.55;3.05;;;1.30;99.90;;;;;;4879970;29;20061;-39
2023/03/08 02:40:16;;;;;;;6.50;2.53;;;1.20;99.90;;;;;;4879902;29;20154;-44
2023/03/08 02:42:42;;;;;;;4.03;2.80;;;1.20;99.90;;;;;;4879870;29;20044;-44
2023/03/08 02:45:08;;;;;;;4.43;3.08;;;1.20;99.90;;;;;;4879129;29;20040;-44
2023/03/08 02:47:34;;;;;;;4.85;3.00;;;1.20;99.90;;;;;;4879811;29;20039;-43
2023/03/08 02:49:59;;;;;;;6.97;3.42;;;1.20;99.90;;;;;;4879676;29;20112;-42
2023/03/08 02:52:25;;;;;;;13.73;3.40;;;1.20;99.90;;;;;;4879777;29;20398;-44
2023/03/08 02:54:52;;;;;;;4.95;3.90;;;1.20;99.90;;;;;;4879671;29;20029;-71
2023/03/08 02:57:18;;;;;;;5.30;3.70;;;1.20;99.90;;;;;;4877441;29;20025;-45
2023/03/08 02:59:44;;;;;;;7.03;3.97;;;1.20;99.90;;;;;;4876896;29;20025;-45
2023/03/08 03:02:09;;;;;;;4.55;3.22;;;1.20;99.90;;;;;;4873266;29;20474;-46
2023/03/08 03:04:35;;;;;;;10.82;4.53;;;1.20;99.90;;;;;;4865673;29;20154;-47
2023/03/08 03:07:01;;;;;;;7.18;4.22;;;1.20;99.90;;;;;;4879402;29;20037;-45
2023/03/08 03:09:27;;;;;;;4.40;3.53;;;1.20;99.90;;;;;;4879296;29;20112;-33
2023/03/08 03:11:53;;;;;;;6.00;3.97;;;1.20;99.90;;;;;;4879191;29;20574;-45
2023/03/08 03:14:19;;;;;;;6.85;4.45;;;1.20;99.90;;;;;;4879352;29;20036;-45
2023/03/08 03:16:45;;;;;;;8.77;4.47;;;1.20;99.90;;;;;;4879293;29;20025;-35
2023/03/08 03:19:11;;;;;;;6.63;4.25;;;1.20;99.90;;;;;;4878652;29;20085;-37
2023/03/08 03:21:38;;;;;;;7.82;3.90;;;1.20;99.90;;;;;;4879245;29;20033;-35
2023/03/08 03:24:04;;;;;;;4.32;3.28;;;1.20;99.90;;;;;;4879088;29;20478;-41
2023/03/08 03:26:30;;;;;;;7.30;4.47;;;1.30;99.90;;;;;;4878973;29;20089;-38
2023/03/08 03:28:56;;;;;;;6.38;4.22;;;1.30;99.90;;;;;;4879194;29;20032;-41
2023/03/08 03:31:23;;;;;;;8.32;4.60;;;1.30;99.90;;;;;;4878991;29;20025;-37
2023/03/08 03:33:49;;;;;;;8.45;3.40;;;1.30;99.90;;;;;;4879146;29;20052;-32
2023/03/08 03:36:17;;;;;;;11.32;4.43;;;1.30;99.90;;;;;;4878319;29;20100;-40
2023/03/08 03:38:44;;;;;;;8.07;4.88;;;1.30;99.90;;;;;;4879141;29;20029;-72
2023/03/08 03:41:12;;;;;;;12.45;5.28;;;1.20;99.90;;;;;;4878984;29;20542;-65
2023/03/08 03:43:38;;;;;;;10.57;5.35;;;1.20;99.90;;;;;;4860635;29;20038;-45
2023/03/08 03:46:07;;;;;;;10.52;5.80;;;1.20;99.90;;;;;;4860549;29;20498;-45
2023/03/08 03:48:35;;;;;;;11.30;5.25;;;1.00;99.90;;;;;;4860375;29;20034;-45
2023/03/08 03:51:03;;;;;;;9.30;5.15;;;0.90;99.90;;;;;;4860122;29;20172;-46
2023/03/08 03:53:30;;;;;;;7.90;6.00;;;1.00;99.90;;;;;;4861410;29;20029;-45
2023/03/08 03:56:02;;;;;;;19.77;5.03;;;1.10;99.90;;;;;;4843899;29;20372;-41
2023/03/08 03:58:28;;;;;;;9.05;4.70;;;1.10;99.90;;;;;;4863312;29;20036;-42
2023/03/08 04:00:55;;;;;;;8.35;4.75;;;1.10;99.90;;;;;;4880540;29;20508;-45
2023/03/08 04:03:21;;;;;;;8.40;4.95;;;1.00;99.90;;;;;;4885118;29;20040;-44
2023/03/08 04:05:46;;;;;;;5.82;4.75;;;0.90;99.90;;;;;;4878782;29;20477;-45
2023/03/08 04:08:12;;;;;;;10.40;5.15;;;1.00;99.90;;;;;;4875651;29;20033;-44
2023/03/08 04:10:38;;;;;;;8.05;5.25;;;1.10;99.90;;;;;;4876361;29;20069;-49
2023/03/08 04:13:03;;;;;;;7.47;4.93;;;1.30;99.90;;;;;;4875917;29;20482;-35
2023/03/08 04:15:29;;;;;;;8.50;5.13;;;1.30;99.90;;;;;;4878567;29;20033;-37
2023/03/08 04:17:55;;;;;;;6.45;4.88;;;1.20;99.90;;;;;;4876944;29;20382;-42
2023/03/08 04:20:20;;;;;;;9.88;5.53;;;1.10;99.90;;;;;;4863196;29;20033;-41
2023/03/08 04:22:46;;;;;;;7.40;4.60;;;1.10;99.90;;;;;;4877335;29;20041;-36
2023/03/08 04:25:11;;;;;;;11.07;4.85;;;1.20;99.90;;;;;;4878617;29;20383;-42
2023/03/08 04:27:37;;;;;;;10.13;5.82;;;1.30;99.90;;;;;;4878559;29;20044;-40
2023/03/08 04:30:03;;;;;;;9.38;5.80;;;1.30;99.90;;;;;;4877403;29;20090;-41
2023/03/08 04:32:31;;;;;;;9.45;5.55;;;1.30;99.90;;;;;;4878403;29;20037;-38
2023/03/08 04:34:56;;;;;;;13.45;6.13;;;1.20;99.90;;;;;;4878623;29;20036;-40
2023/03/08 04:37:22;;;;;;;18.73;8.10;;;1.20;99.90;;;;;;4878502;29;20028;-32
2023/03/08 04:39:48;;;;;;;11.27;6.28;;;1.20;99.90;;;;;;4878495;29;20117;-42
2023/03/08 04:42:14;;;;;;;7.97;5.93;;;1.20;99.90;;;;;;4861102;29;20443;-46
2023/03/08 04:44:39;;;;;;;13.15;6.70;;;1.40;99.90;;;;;;4879849;29;20037;-38
2023/03/08 04:47:05;;;;;;;13.77;7.00;;;1.40;99.90;;;;;;4881085;29;20100;-40
2023/03/08 04:49:31;;;;;;;14.10;8.27;;;1.30;99.90;;;;;;4865153;29;20478;-35
2023/03/08 04:51:56;;;;;;;13.18;7.70;;;1.30;99.90;;;;;;4880329;29;20053;-38
2023/03/08 04:54:22;;;;;;;17.38;9.40;;;1.30;99.90;;;;;;4879159;29;20045;-42
2023/03/08 04:56:48;;;;;;;32.25;10.88;;;1.30;99.90;;;;;;4881517;29;20070;-36
2023/03/08 04:59:14;;;;;;;27.50;12.57;;;1.30;99.90;;;;;;4881759;29;20479;-39
2023/03/08 05:01:41;;;;;;;31.38;12.25;;;1.30;99.90;;;;;;4880846;29;20483;-37
2023/03/08 05:04:09;;;;;;;18.07;8.60;;;1.20;99.90;;;;;;4882425;29;20482;-35
2023/03/08 05:06:35;;;;;;;;;;;1.20;99.90;;;;;;4896165;29;20032;-35
2023/03/08 05:09:00;;;;;;;28.67;11.73;;;1.10;99.90;;;;;;4881485;29;20395;-38
2023/03/08 05:11:28;;;;;;;26.98;11.65;;;1.10;99.90;;;;;;4881342;29;20442;-37
2023/03/08 05:13:55;;;;;;;28.43;12.93;;;1.20;99.90;;;;;;4881371;29;20364;-35
2023/03/08 05:16:21;;;;;;;70.53;13.85;;;1.20;99.90;;;;;;4875646;29;20782;-38
2023/03/08 05:18:47;;;;;;;37.22;13.02;;;1.20;99.90;;;;;;4880906;29;20029;-37
2023/03/08 05:21:16;;;;;;;28.52;11.02;;;1.20;99.90;;;;;;4881480;29;20041;-38
2023/03/08 05:23:42;;;;;;;31.23;12.15;;;1.30;99.90;;;;;;4879434;29;20501;-35
2023/03/08 05:26:09;;;;;;;36.25;12.43;;;1.30;99.90;;;;;;4879344;29;20112;-31
2023/03/08 05:28:40;;;;;;;32.03;11.83;;;1.20;99.90;;;;;;4881116;29;20389;-40
2023/03/08 05:31:13;;;;;;;27.30;11.63;;;1.20;99.90;;;;;;4864371;29;20033;-43
2023/03/08 05:33:40;;;;;;;30.50;11.57;;;1.20;99.90;;;;;;4863581;29;20424;-40
2023/03/08 05:36:07;;;;;;;24.23;11.82;;;1.10;99.90;;;;;;4878690;29;20462;-36
2023/03/08 05:38:33;;;;;;;26.27;11.27;;;1.10;99.90;;;;;;4880768;29;20021;-38
2023/03/08 05:41:00;;;;;;;40.30;12.30;;;0.90;99.90;;;;;;4880772;29;20081;-43
2023/03/08 05:43:26;;;;;;;33.60;11.52;;;0.90;99.90;;;;;;4881061;29;20025;-44
2023/03/08 05:46:14;;;;;;;26.48;11.13;;;1.00;99.90;;;;;;4880766;29;20062;-36
2023/03/08 05:48:39;;;;;;;32.47;11.05;;;1.00;99.90;;;;;;4881411;29;20517;-37
2023/03/08 05:51:11;;;;;;;34.42;12.75;;;1.00;99.90;;;;;;4880542;29;20117;-73
2023/03/08 05:53:37;;;;;;;23.75;11.27;;;1.00;99.90;;;;;;4879631;29;20047;-62
2023/03/08 05:56:09;;;;;;;32.08;11.77;;;1.00;99.90;;;;;;4864930;29;20025;-35
2023/03/08 05:58:35;;;;;;;32.30;11.60;;;0.90;99.90;;;;;;4873598;29;20533;-36
2023/03/08 06:01:15;;;;;;;38.97;11.30;;;0.90;99.90;;;;;;4880555;29;20037;-40
2023/03/08 06:03:45;;;;;;;32.92;12.50;;;1.00;99.90;;;;;;4879633;29;20037;-37
2023/03/08 06:06:11;;;;;;;31.25;12.68;;;1.00;99.90;;;;;;4862129;29;20483;-37
2023/03/08 06:08:37;;;;;;;31.77;12.23;;;0.90;99.90;;;;;;4863398;29;20033;-37
2023/03/08 06:11:03;;;;;;;29.27;12.65;;;1.00;99.90;;;;;;4880516;29;20123;-40
2023/03/08 06:13:29;;;;;;;32.10;13.70;;;1.00;99.90;;;;;;4878776;29;20028;-40
2023/03/08 06:15:56;;;;;;;32.58;12.77;;;0.90;99.90;;;;;;4880376;29;20029;-56
2023/03/08 06:18:23;;;;;;;31.38;12.77;;;1.00;99.90;;;;;;4880121;29;20028;-39
2023/03/08 06:21:05;;;;;;;32.97;12.73;;;1.10;99.90;;;;;;4880200;29;20044;-36
2023/03/08 06:23:32;;;;;;;32.40;12.45;;;1.20;99.90;;;;;;4879088;29;20048;-38
2023/03/08 06:25:58;;;;;;;26.13;12.05;;;1.10;99.90;;;;;;4879093;29;20032;-38
2023/03/08 06:28:25;;;;;;;38.83;14.60;;;1.10;99.90;;;;;;4879892;29;20029;-36
2023/03/08 06:30:52;;;;;;;33.15;13.10;;;1.20;99.90;;;;;;4879852;29;20067;-36
2023/03/08 06:33:19;;;;;;;33.10;13.70;;;1.10;99.90;;;;;;4862307;29;20025;-43
2023/03/08 06:35:59;;;;;;;29.02;13.07;;;1.10;99.90;;;;;;4878827;29;20052;-37
2023/03/08 06:38:26;;;;;;;28.73;13.80;;;1.20;99.90;;;;;;4875719;29;20105;-36
2023/03/08 06:40:52;;;;;;;37.50;13.32;;;1.10;99.90;;;;;;4879269;29;20502;-40
2023/03/08 06:43:18;;;;;;;42.50;15.68;;;1.20;99.90;;;;;;4877639;29;20033;-37
2023/03/08 06:45:44;;;;;;;34.95;13.98;;;1.20;99.90;;;;;;4877132;29;20364;-40
2023/03/08 06:48:09;;;;;;;36.58;14.95;;;1.20;99.90;;;;;;4878974;29;20037;-37
2023/03/08 06:50:35;;;;;;;31.20;13.23;;;1.20;99.90;;;;;;4863243;29;20025;-46
2023/03/08 06:53:01;;;;;;;36.22;15.48;;;1.30;99.90;;;;;;4876016;29;20044;-42
2023/03/08 06:55:27;;;;;;;33.67;12.73;;;1.30;99.90;;;;;;4878880;29;20479;-46
2023/03/08 06:57:54;;;;;;;33.45;13.95;;;1.40;99.90;;;;;;4860529;29;20529;-36
2023/03/08 07:00:21;;;;;;;26.07;10.33;;;1.30;99.90;;;;;;4879547;29;20475;-40
2023/03/08 07:02:47;;;;;;;33.30;14.70;;;1.40;99.90;;;;;;4879435;29;20292;-39
2023/03/08 07:05:14;;;;;;;27.83;14.02;;;1.40;99.90;;;;;;4879217;29;20037;-38
2023/03/08 07:07:41;;;;;;;37.30;15.53;;;1.50;99.90;;;;;;4878271;29;20037;-39
2023/03/08 07:10:07;;;;;;;36.45;14.98;;;1.60;99.90;;;;;;4879361;29;20494;-67
2023/03/08 07:12:35;;;;;;;37.13;15.90;;;1.70;99.90;;;;;;4878079;29;20037;-40
2023/03/08 07:15:01;;;;;;;36.55;14.93;;;1.70;99.90;;;;;;4877101;29;20104;-46
2023/03/08 07:17:26;;;;;;;35.03;13.45;;;1.70;99.90;;;;;;4878441;29;20021;-43
2023/03/08 07:19:52;;;;;;;40.50;15.63;;;1.70;99.90;;;;;;4880322;29;20029;-45
2023/03/08 07:22:18;;;;;;;36.75;13.52;;;1.60;99.90;;;;;;4879041;29;20044;-44
2023/03/08 07:24:46;;;;;;;31.40;13.25;;;1.70;99.90;;;;;;4879108;29;20124;-47
2023/03/08 07:27:12;;;;;;;35.25;14.98;;;1.70;99.90;;;;;;4879179;29;20077;-46
2023/03/08 07:29:38;;;;;;;34.75;14.57;;;1.70;99.90;;;;;;4879183;29;20478;-48
2023/03/08 07:32:03;;;;;;;32.42;12.73;;;1.70;99.90;;;;;;4879112;29;20120;-42
2023/03/08 07:34:29;;;;;;;36.63;14.27;;;1.60;99.90;;;;;;4878322;29;20478;-43
2023/03/08 07:36:55;;;;;;;30.70;14.20;;;1.60;99.90;;;;;;4878921;29;20025;-43
2023/03/08 07:39:21;;;;;;;35.45;14.98;;;1.60;99.90;;;;;;4878985;29;20033;-43
2023/03/08 07:41:48;;;;;;;43.25;14.57;;;1.60;99.90;;;;;;4862468;29;20033;-44
2023/03/08 07:44:14;;;;;;;32.53;13.55;;;1.70;99.90;;;;;;4879008;29;20029;-43
2023/03/08 07:46:40;;;;;;;40.00;15.02;;;1.70;99.90;;;;;;4879026;29;20104;-45
2023/03/08 07:49:09;;;;;;;38.28;13.60;;;1.60;99.90;;;;;;4879200;29;20029;-44
2023/03/08 07:51:35;;;;;;;28.77;12.85;;;1.60;99.90;;;;;;4878519;29;20043;-44
2023/03/08 07:54:01;;;;;;;36.72;14.00;;;1.60;99.90;;;;;;4878407;29;20470;-43
2023/03/08 07:56:27;;;;;;;32.03;12.80;;;1.70;99.90;;;;;;4873844;29;20060;-61
2023/03/08 07:58:56;;;;;;;39.95;15.98;;;1.60;99.90;;;;;;4873378;29;20509;-43
2023/03/08 08:01:22;;;;;;;33.90;14.18;;;1.60;99.90;;;;;;4875043;29;20037;-46
2023/03/08 08:03:47;;;;;;;45.95;16.90;;;1.60;99.90;;;;;;4861551;29;20109;-33
2023/03/08 08:06:13;;;;;;;37.67;15.35;;;1.70;99.90;;;;;;4876557;29;20025;-36
2023/03/08 08:08:39;;;;;;;37.38;16.92;;;1.70;99.90;;;;;;4877673;29;20039;-42
2023/03/08 08:11:13;;;;;;;42.33;15.18;;;1.70;99.90;;;;;;4862780;29;20127;-41
2023/03/08 08:13:39;;;;;;;37.10;15.40;;;1.70;99.90;;;;;;4875432;29;20040;-43
2023/03/08 08:16:06;;;;;;;36.40;14.32;;;1.70;99.90;;;;;;4859166;29;20112;-39
2023/03/08 08:18:32;;;;;;;44.58;16.35;;;1.80;99.90;;;;;;4861097;29;20072;-38
2023/03/08 08:21:03;;;;;;;39.55;14.85;;;1.80;99.90;;;;;;4877644;29;20946;-35
2023/03/08 08:23:29;;;;;;;36.63;14.00;;;1.80;99.90;;;;;;4881170;29;20111;-34
2023/03/08 08:25:55;;;;;;;43.58;16.77;;;1.90;99.90;;;;;;4886402;29;20025;-45
2023/03/08 08:28:22;;;;;;;43.40;16.42;;;1.90;99.90;;;;;;4881611;29;20025;-45
2023/03/08 08:31:16;;;;;;;52.17;18.95;;;1.90;99.90;;;;;;4884165;29;20021;-39
2023/03/08 08:33:42;;;;;;;47.58;16.55;;;1.80;99.90;;;;;;4873492;29;20041;-38
2023/03/08 08:36:13;;;;;;;53.35;16.98;;;1.80;99.90;;;;;;4882036;29;20498;-34
2023/03/08 08:38:39;;;;;;;54.92;17.27;;;1.90;99.90;;;;;;4881047;29;20073;-41
2023/03/08 08:41:06;;;;;;;45.33;15.90;;;1.90;99.90;;;;;;4880117;29;20043;-41
2023/03/08 08:43:33;;;;;;;49.05;17.90;;;2.00;99.90;;;;;;4878543;29;20048;-39
2023/03/08 08:45:59;;;;;;;47.00;17.08;;;2.00;99.90;;;;;;4878882;29;20054;-40
2023/03/08 08:48:26;;;;;;;52.50;15.85;;;2.00;99.90;;;;;;4879749;29;20482;-37
2023/03/08 08:50:53;;;;;;;49.78;17.95;;;2.00;99.90;;;;;;4880834;29;20036;-41
2023/03/08 08:53:19;;;;;;;54.88;18.10;;;2.10;99.90;;;;;;4879788;29;20045;-39
2023/03/08 08:55:45;;;;;;;48.83;16.85;;;2.10;99.90;;;;;;4878983;29;20501;-53
2023/03/08 08:58:11;;;;;;;46.50;16.75;;;2.20;99.90;;;;;;4879602;29;20029;-37
2023/03/08 09:00:37;;;;;;;54.22;18.08;;;2.20;99.90;;;;;;4881585;29;20486;-37
2023/03/08 09:03:03;;;;;;;41.70;16.15;;;2.20;99.90;;;;;;4878544;29;20462;-37
2023/03/08 09:05:30;;;;;;;54.80;17.02;;;2.30;99.90;;;;;;4880317;29;20032;-36
2023/03/08 09:07:57;;;;;;;49.40;17.60;;;2.30;99.90;;;;;;4880291;29;20498;-34
2023/03/08 09:10:25;;;;;;;47.50;15.93;;;2.30;99.90;;;;;;4881088;29;20398;-37
2023/03/08 09:12:51;;;;;;;48.20;16.33;;;2.30;99.90;;;;;;4881580;29;20033;-36
2023/03/08 09:15:16;;;;;;;52.67;16.50;;;2.40;99.90;;;;;;4878524;29;20487;-37
2023/03/08 09:17:42;;;;;;;42.97;15.63;;;2.50;99.90;;;;;;4881307;29;20525;-35
2023/03/08 09:20:08;;;;;;;54.50;15.77;;;2.60;99.90;;;;;;4880044;29;20116;-39
2023/03/08 09:22:35;;;;;;;44.47;16.08;;;2.70;99.90;;;;;;4878109;29;20431;-37
2023/03/08 09:25:01;;;;;;;41.58;15.63;;;2.90;99.90;;;;;;4874589;29;20387;-38
2023/03/08 09:27:27;;;;;;;42.30;15.25;;;2.90;99.90;;;;;;4879291;29;20025;-39
2023/03/08 09:29:52;;;;;;;42.15;15.15;;;2.90;99.90;;;;;;4875492;29;20033;-37
2023/03/08 09:32:18;;;;;;;39.42;13.60;;;2.90;99.90;;;;;;4880238;29;20043;-41
2023/03/08 09:34:44;;;;;;;45.28;14.98;;;3.00;99.90;;;;;;4877168;29;20390;-37
2023/03/08 09:37:11;;;;;;;42.72;14.77;;;3.00;99.90;;;;;;4880710;29;20442;-37
2023/03/08 09:39:39;;;;;;;46.80;16.35;;;3.00;99.90;;;;;;4880940;29;20155;-38
2023/03/08 09:42:17;;;;;;;42.85;14.57;;;3.00;99.90;;;;;;4880848;29;20029;-50
2023/03/08 09:45:03;;;;;;;47.35;15.27;;;3.10;99.90;;;;;;4881213;29;20517;-34
2023/03/08 09:47:40;;;;;;;46.38;14.13;;;3.10;99.90;;;;;;4881047;29;20492;-40
2023/03/08 09:50:12;;;;;;;41.20;15.32;;;3.10;99.90;;;;;;4880062;29;20037;-46
2023/03/08 09:52:50;;;;;;;32.40;12.73;;;3.20;99.90;;;;;;4880683;29;20045;-43
2023/03/08 09:55:29;;;;;;;38.03;13.18;;;3.20;99.90;;;;;;4880539;29;20044;-55
2023/03/08 09:58:32;;;;;;;40.28;13.65;;;3.30;99.90;;;;;;4869900;29;20081;-46
2023/03/08 10:01:15;;;;;;;30.95;12.55;;;3.10;99.90;;;;;;4880096;29;20033;-42
2023/03/08 10:03:56;;;;;;;41.67;15.70;;;3.20;99.90;;;;;;4880202;29;20033;-36
2023/03/08 10:06:45;;;;;;;40.58;12.98;;;3.30;99.90;;;;;;4879768;29;20061;-38
2023/03/08 10:09:34;;;;;;;38.63;14.70;;;3.40;99.90;;;;;;4879749;29;20049;-39
2023/03/08 10:12:18;;;;;;;39.25;15.65;;;3.50;99.90;;;;;;4879868;29;20041;-37
2023/03/08 10:15:00;;;;;;;42.97;14.20;;;3.70;99.90;;;;;;4862225;29;20037;-40
2023/03/08 10:17:39;;;;;;;36.92;13.18;;;3.80;99.90;;;;;;4877576;29;20096;-40
2023/03/08 10:20:22;;;;;;;44.28;15.30;;;3.80;99.90;;;;;;4879231;29;20120;-32
2023/03/08 10:23:00;;;;;;;35.88;13.00;;;3.80;99.90;;;;;;4864208;29;20097;-39
2023/03/08 10:25:32;;;;;;;38.70;12.77;;;3.90;99.90;;;;;;4879093;29;20116;-39
2023/03/08 10:28:00;;;;;;;33.83;12.05;;;3.90;99.90;;;;;;4878424;29;20482;-40
2023/03/08 10:30:34;;;;;;;;;;;3.90;99.90;;;;;;4878460;29;20032;-36
2023/03/08 10:33:06;;;;;;;22.15;10.35;;;3.70;99.90;;;;;;4878475;29;20423;-35
2023/03/08 10:35:37;;;;;;;28.60;11.07;;;3.70;99.90;;;;;;4880223;29;20032;-39
2023/03/08 10:38:04;;;;;;;34.30;11.23;;;3.70;99.90;;;;;;4879321;29;20615;-38
2023/03/08 10:40:30;;;;;;;32.72;11.38;;;3.80;99.90;;;;;;4879106;29;20108;-38
2023/03/08 10:43:04;;;;;;;27.33;10.90;;;3.80;99.90;;;;;;4876539;29;20484;-43
2023/03/08 10:45:30;;;;;;;27.42;10.18;;;3.80;99.90;;;;;;4879001;29;20025;-44
2023/03/08 10:48:04;;;;;;;28.08;10.35;;;3.80;99.90;;;;;;4879442;29;20036;-44
2023/03/08 10:50:31;;;;;;;24.52;10.43;;;3.80;99.90;;;;;;4879457;29;20397;-45
2023/03/08 10:53:09;;;;;;;32.63;11.43;;;4.00;99.90;;;;;;4879419;29;20041;-47
2023/03/08 10:55:46;;;;;;;24.05;9.63;;;4.00;99.90;;;;;;4869928;29;20360;-45
2023/03/08 10:58:30;;;;;;;25.88;10.90;;;4.20;99.90;;;;;;4878938;29;20474;-43
2023/03/08 11:00:59;;;;;;;24.73;9.35;;;4.20;99.90;;;;;;4878751;29;20036;-38
2023/03/08 11:03:25;;;;;;;22.73;10.13;;;4.20;99.90;;;;;;4879385;29;20029;-36
2023/03/08 11:05:52;;;;;;;23.73;8.85;;;4.20;99.90;;;;;;4879420;29;20021;-38
2023/03/08 11:08:21;;;;;;;25.23;9.35;;;4.20;99.90;;;;;;4879500;29;20029;-38
2023/03/08 11:10:47;;;;;;;22.70;9.98;;;4.30;99.90;;;;;;4879471;29;20036;-35
2023/03/08 11:13:33;;;;;;;22.10;9.32;;;4.30;99.90;;;;;;4861188;29;20037;-34
2023/03/08 11:16:28;;;;;;;25.40;9.93;;;4.40;99.90;;;;;;4860538;29;20033;-39
2023/03/08 11:19:24;;;;;;;28.27;10.40;;;4.40;99.90;;;;;;4850652;29;20037;-36
2023/03/08 11:22:27;;;;;;;26.67;10.35;;;4.20;99.90;;;;;;4860672;29;20422;-34
2023/03/08 11:24:55;;;;;;;21.08;8.52;;;4.20;99.90;;;;;;4860590;29;20034;-36
2023/03/08 11:27:40;;;;;;;23.27;9.80;;;4.20;99.90;;;;;;4860900;29;20434;-39
2023/03/08 11:30:33;;;;;;;21.40;8.85;;;4.30;99.90;;;;;;4876773;29;20072;-40
2023/03/08 11:33:32;;;;;;;24.40;9.73;;;4.50;99.90;;;;;;4860255;29;20068;-39
2023/03/08 11:36:04;;;;;;;22.08;8.57;;;4.60;99.90;;;;;;4860394;29;20061;-36
2023/03/08 11:38:31;;;;;;;23.10;9.10;;;4.60;99.90;;;;;;4860607;29;20040;-39
2023/03/08 11:41:18;;;;;;;19.48;9.25;;;4.60;99.90;;;;;;4860489;29;20072;-46
2023/03/08 11:43:58;;;;;;;20.33;8.10;;;4.60;99.90;;;;;;4860582;29;20116;-43
2023/03/08 11:46:47;;;;;;;20.13;8.95;;;4.60;99.90;;;;;;4860540;29;20505;-44
2023/03/08 11:49:40;;;;;;;22.10;8.25;;;4.50;99.90;;;;;;4874519;29;20025;-42
2023/03/08 11:52:28;;;;;;;20.83;7.82;;;4.30;99.90;;;;;;4879062;29;20071;-50
2023/03/08 11:55:14;;;;;;;21.55;8.70;;;4.30;99.90;;;;;;4893539;29;20397;-44
2023/03/08 11:57:45;;;;;;;19.20;8.27;;;4.40;99.90;;;;;;4901525;29;20111;-45
2023/03/08 12:00:28;;;;;;;16.15;8.10;;;4.50;99.90;;;;;;4901476;29;20030;-44
2023/03/08 12:02:58;;;;;;;18.48;8.48;;;4.40;99.90;;;;;;4882723;29;20032;-48
2023/03/08 12:05:29;;;;;;;16.75;7.38;;;4.40;99.90;;;;;;4877746;29;20161;-39
2023/03/08 12:08:12;;;;;;;19.23;8.57;;;4.30;99.90;;;;;;4881637;29;20076;-38
2023/03/08 12:10:50;;;;;;;24.25;7.65;;;4.30;99.90;;;;;;4863495;29;20033;-36
2023/03/08 12:13:37;;;;;;;21.77;7.50;;;4.40;99.90;;;;;;4881537;29;20089;-39
2023/03/08 12:16:21;;;;;;;20.65;7.78;;;4.50;99.90;;;;;;4881253;29;20033;-42
2023/03/08 12:18:52;;;;;;;16.35;7.63;;;4.60;99.90;;;;;;4881119;29;20025;-37
2023/03/08 12:21:29;;;;;;;21.23;8.23;;;4.60;99.90;;;;;;4882346;29;20048;-38
2023/03/08 12:24:13;;;;;;;16.23;7.03;;;4.70;99.90;;;;;;4863746;29;20070;-39
2023/03/08 12:27:04;;;;;;;14.57;6.43;;;4.80;99.90;;;;;;4863637;29;20030;-38
2023/03/08 12:29:37;;;;;;;18.85;7.70;;;4.80;99.90;;;;;;4863685;29;20042;-40
2023/03/08 12:32:04;;;;;;;23.45;7.35;;;4.90;99.90;;;;;;4876318;29;20041;-39
2023/03/08 12:34:39;;;;;;;19.55;7.43;;;5.00;99.90;;;;;;4881114;29;20060;-38
2023/03/08 12:37:19;;;;;;;18.27;6.47;;;5.00;99.90;;;;;;4880947;29;20025;-38
2023/03/08 12:40:04;;;;;;;25.88;7.68;;;4.90;99.90;;;;;;4881325;29;20033;-40
2023/03/08 12:42:34;;;;;;;12.93;6.65;;;4.80;99.90;;;;;;4880078;29;20474;-39
2023/03/08 12:45:18;;;;;;;18.30;8.05;;;4.80;99.90;;;;;;4880753;29;20052;-49
2023/03/08 12:48:14;;;;;;;18.45;6.47;;;4.50;99.90;;;;;;4869673;29;20028;-36
2023/03/08 12:50:58;;;;;;;26.92;8.57;;;4.40;99.90;;;;;;4880348;29;20049;-39
2023/03/08 12:53:48;;;;;;;18.85;7.10;;;4.50;99.90;;;;;;4880836;29;20041;-36
2023/03/08 12:56:48;;;;;;;19.73;8.23;;;4.50;99.90;;;;;;4881095;29;20029;-33
2023/03/08 12:59:14;;;;;;;15.52;7.03;;;4.60;99.90;;;;;;4881683;29;20025;-40
2023/03/08 13:01:42;;;;;;;17.48;7.15;;;4.70;99.90;;;;;;4881332;29;20161;-33